createdAt,value
2018-06-15T00:02:22.298Z,37.77
2018-06-15T00:04:56.677Z,29.43
2018-06-15T00:07:30.990Z,31.43
2018-06-15T00:10:04.366Z,30.73
2018-06-15T00:12:51.170Z,28.20
2018-06-15T00:15:29.470Z,62.80
2018-06-15T00:18:02.803Z,37.87
2018-06-15T00:20:46.467Z,34.23
2018-06-15T00:23:20.035Z,30.90
2018-06-15T00:25:54.950Z,35.37
2018-06-15T00:28:30.727Z,40.90
2018-06-15T00:31:06.995Z,43.63
2018-06-15T00:33:39.930Z,31.63
2018-06-15T00:36:12.674Z,33.23
2018-06-15T00:38:46.793Z,33.10
2018-06-15T00:41:19.648Z,42.50
2018-06-15T00:43:53.558Z,36.57
2018-06-15T00:46:27.252Z,40.13
2018-06-15T00:49:00.160Z,30.63
2018-06-15T00:51:32.888Z,35.10
2018-06-15T00:54:05.802Z,33.70
2018-06-15T00:56:43.960Z,27.43
2018-06-15T00:59:17.229Z,33.77
2018-06-15T01:01:49.825Z,49.00
2018-06-15T01:04:22.882Z,30.50
2018-06-15T01:06:55.726Z,38.73
2018-06-15T01:09:28.542Z,36.03
2018-06-15T01:12:01.243Z,37.80
2018-06-15T01:14:33.954Z,38.67
2018-06-15T01:17:09.211Z,37.67
2018-06-15T01:19:42.065Z,39.03
2018-06-15T01:22:15.795Z,36.23
2018-06-15T01:24:48.509Z,36.27
2018-06-15T01:27:21.485Z,36.30
2018-06-15T01:29:54.355Z,35.63
2018-06-15T01:32:28.048Z,37.33
2018-06-15T01:35:00.670Z,35.87
2018-06-15T01:37:33.557Z,34.53
2018-06-15T01:40:08.172Z,34.47
2018-06-15T01:42:44.599Z,36.97
2018-06-15T01:45:43.954Z,37.97
2018-06-15T01:48:19.506Z,43.80
2018-06-15T01:50:51.832Z,48.00
2018-06-15T01:53:24.035Z,43.03
2018-06-15T01:55:57.701Z,47.00
2018-06-15T02:01:51.020Z,43.73
2018-06-15T02:07:53.025Z,40.33
2018-06-15T02:10:31.423Z,42.73
2018-06-15T02:13:04.005Z,40.70
2018-06-15T02:19:07.777Z,39.23
2018-06-15T02:21:40.232Z,40.43
2018-06-15T02:24:12.917Z,41.03
2018-06-15T02:26:45.488Z,41.00
2018-06-15T02:29:18.051Z,41.10
2018-06-15T02:31:49.076Z,42.03
2018-06-15T02:34:21.365Z,41.30
2018-06-15T02:36:53.800Z,43.30
2018-06-15T02:39:26.152Z,48.63
2018-06-15T02:41:58.549Z,68.57
2018-06-15T02:45:07.054Z,62.77
2018-06-15T02:47:39.668Z,41.07
2018-06-15T02:50:12.570Z,34.50
2018-06-15T02:52:45.433Z,37.67
2018-06-15T02:55:18.789Z,34.50
2018-06-15T03:01:12.096Z,38.10
2018-06-15T03:03:44.731Z,38.50
2018-06-15T03:06:17.222Z,36.50
2018-06-15T03:08:52.847Z,41.77
2018-06-15T03:11:26.000Z,43.40
2018-06-15T03:13:58.752Z,42.87
2018-06-15T03:16:31.352Z,40.43
2018-06-15T03:19:03.869Z,42.87
2018-06-15T03:21:36.430Z,44.60
2018-06-15T03:27:31.111Z,44.00
2018-06-15T03:30:08.630Z,43.73
2018-06-15T03:32:51.410Z,40.07
2018-06-15T03:35:35.629Z,43.67
2018-06-15T03:38:09.712Z,44.57
2018-06-15T03:40:43.429Z,46.67
2018-06-15T03:43:15.441Z,47.10
2018-06-15T03:45:47.539Z,45.37
2018-06-15T03:48:19.758Z,42.63
2018-06-15T03:50:51.825Z,42.63
2018-06-15T03:53:23.907Z,43.30
2018-06-15T03:55:55.957Z,43.60
2018-06-15T03:58:28.104Z,39.93
2018-06-15T04:01:00.102Z,39.13
2018-06-15T04:03:32.061Z,42.83
2018-06-15T04:06:04.223Z,42.63
2018-06-15T04:08:36.354Z,42.53
2018-06-15T04:11:08.531Z,38.93
2018-06-15T04:13:40.507Z,36.37
2018-06-15T04:16:12.560Z,38.00
2018-06-15T04:18:44.666Z,41.10
2018-06-15T04:24:48.298Z,32.30
2018-06-15T04:27:20.781Z,36.30
2018-06-15T04:29:53.332Z,35.60
2018-06-15T04:32:25.822Z,33.93
2018-06-15T04:34:58.634Z,31.40
2018-06-15T04:37:37.614Z,30.00
2018-06-15T04:40:16.468Z,31.87
2018-06-15T04:42:49.031Z,30.30
2018-06-15T04:45:21.555Z,30.63
2018-06-15T04:47:59.555Z,30.47
2018-06-15T04:50:33.916Z,29.20
2018-06-15T04:53:06.374Z,34.80
2018-06-15T04:55:38.843Z,32.00
2018-06-15T04:58:11.356Z,34.90
2018-06-15T05:00:44.005Z,32.33
2018-06-15T05:03:17.128Z,34.17
2018-06-15T05:05:49.632Z,34.53
2018-06-15T05:08:22.617Z,34.73
2018-06-15T05:10:55.158Z,34.30
2018-06-15T05:13:27.733Z,32.93
2018-06-15T05:16:00.466Z,34.00
2018-06-15T05:18:33.197Z,33.67
2018-06-15T05:21:05.768Z,36.27
2018-06-15T05:23:38.280Z,36.80
2018-06-15T05:26:10.737Z,39.67
2018-06-15T05:28:43.123Z,36.07
2018-06-15T05:31:15.624Z,35.60
2018-06-15T05:33:48.283Z,37.30
2018-06-15T05:36:20.604Z,34.63
2018-06-15T05:38:53.345Z,35.87
2018-06-15T05:41:25.970Z,38.43
2018-06-15T05:43:58.413Z,37.37
2018-06-15T05:46:30.811Z,35.00
2018-06-15T05:49:05.460Z,37.00
2018-06-15T05:51:37.926Z,36.17
2018-06-15T05:54:10.562Z,36.33
2018-06-15T05:56:42.886Z,36.63
2018-06-15T05:59:15.390Z,35.53
2018-06-15T06:01:47.827Z,35.13
2018-06-15T06:04:21.596Z,35.80
2018-06-15T06:10:47.765Z,34.60
2018-06-15T06:13:24.279Z,35.63
2018-06-15T06:15:57.287Z,34.83
2018-06-15T06:18:30.228Z,35.27
2018-06-15T06:21:03.203Z,36.73
2018-06-15T06:23:36.717Z,34.90
2018-06-15T06:26:09.492Z,34.23
2018-06-15T06:28:42.936Z,34.57
2018-06-15T06:31:16.412Z,37.90
2018-06-15T06:33:48.932Z,39.03
2018-06-15T06:39:42.083Z,37.00
2018-06-15T06:42:13.096Z,40.27
2018-06-15T06:44:45.216Z,39.60
2018-06-15T06:47:17.340Z,38.20
2018-06-15T06:49:49.504Z,39.80
2018-06-15T06:52:21.620Z,38.37
2018-06-15T06:54:53.767Z,35.07
2018-06-15T06:57:26.495Z,34.20
2018-06-15T06:59:58.691Z,34.30
2018-06-15T07:02:30.919Z,35.03
2018-06-15T07:05:03.098Z,35.57
2018-06-15T07:07:35.343Z,33.97
2018-06-15T07:10:09.609Z,33.13
2018-06-15T07:12:42.827Z,35.20
2018-06-15T07:15:15.060Z,33.43
2018-06-15T07:17:47.120Z,34.27
2018-06-15T07:20:19.230Z,33.60
2018-06-15T07:22:51.521Z,31.00
2018-06-15T07:25:23.703Z,33.70
2018-06-15T07:27:55.907Z,34.83
2018-06-15T07:30:28.045Z,34.60
2018-06-15T07:33:00.147Z,35.80
2018-06-15T07:35:32.794Z,39.43
2018-06-15T07:38:06.699Z,36.63
2018-06-15T07:40:39.059Z,37.73
2018-06-15T07:43:11.301Z,39.53
2018-06-15T07:45:43.599Z,40.23
2018-06-15T07:48:16.302Z,40.73
2018-06-15T07:50:48.428Z,36.03
2018-06-15T07:53:20.503Z,33.13
2018-06-15T07:55:52.765Z,36.90
2018-06-15T07:58:24.920Z,34.40
2018-06-15T08:00:56.992Z,33.73
2018-06-15T08:03:29.157Z,30.20
2018-06-15T08:06:01.255Z,32.57
2018-06-15T08:08:33.428Z,29.97
2018-06-15T08:11:05.735Z,32.10
2018-06-15T08:13:38.145Z,29.70
2018-06-15T08:16:11.112Z,31.40
2018-06-15T08:18:43.612Z,31.90
2018-06-15T08:21:15.798Z,31.27
2018-06-15T08:23:47.921Z,30.90
2018-06-15T08:26:20.984Z,30.80
2018-06-15T08:28:53.202Z,29.20
2018-06-15T08:31:55.089Z,28.00
2018-06-15T08:34:27.274Z,26.13
2018-06-15T08:36:59.389Z,28.53
2018-06-15T08:39:31.541Z,28.70
2018-06-15T08:42:03.652Z,29.83
2018-06-15T08:44:35.828Z,32.40
2018-06-15T08:47:08.141Z,34.20
2018-06-15T08:49:41.150Z,34.50
2018-06-15T08:52:13.446Z,33.27
2018-06-15T08:54:45.754Z,29.63
2018-06-15T08:57:17.939Z,33.73
2018-06-15T09:03:11.631Z,33.27
2018-06-15T09:05:44.138Z,32.43
2018-06-15T09:08:16.765Z,34.90
2018-06-15T09:14:09.400Z,35.03
2018-06-15T09:20:12.845Z,36.00
2018-06-15T09:22:45.370Z,36.43
2018-06-15T09:25:17.690Z,36.93
2018-06-15T09:27:50.070Z,38.00
2018-06-15T09:30:22.253Z,40.80
2018-06-15T09:32:54.521Z,43.53
2018-06-15T09:35:26.704Z,41.23
2018-06-15T09:37:59.022Z,40.77
2018-06-15T09:40:31.271Z,41.03
2018-06-15T09:43:03.497Z,43.47
2018-06-15T09:45:35.676Z,42.30
2018-06-15T09:48:08.500Z,43.70
2018-06-15T09:50:41.342Z,43.17
2018-06-15T09:53:12.413Z,44.10
2018-06-15T09:55:45.546Z,47.10
2018-06-15T09:58:17.822Z,42.37
2018-06-15T10:00:52.238Z,43.70
2018-06-15T10:03:24.508Z,45.57
2018-06-15T10:05:56.765Z,46.73
2018-06-15T10:08:28.993Z,50.03
2018-06-15T10:11:01.174Z,53.07
2018-06-15T10:13:33.462Z,55.43
2018-06-15T10:16:05.848Z,58.70
2018-06-15T10:18:38.097Z,57.07
2018-06-15T10:21:10.341Z,58.93
2018-06-15T10:23:43.028Z,58.97
2018-06-15T10:26:15.429Z,58.10
2018-06-15T10:28:47.604Z,57.13
2018-06-15T10:31:19.983Z,60.97
2018-06-15T10:33:52.296Z,65.00
2018-06-15T10:36:24.476Z,64.03
2018-06-15T10:38:56.717Z,63.33
2018-06-15T10:41:28.930Z,64.17
2018-06-15T10:44:01.230Z,69.13
2018-06-15T10:46:33.676Z,68.53
2018-06-15T10:49:05.976Z,64.83
2018-06-15T10:51:38.194Z,60.40
2018-06-15T10:54:10.549Z,57.10
2018-06-15T10:56:42.789Z,55.17
2018-06-15T10:59:15.467Z,53.27
2018-06-15T11:01:47.695Z,47.70
2018-06-15T11:04:19.904Z,48.00
2018-06-15T11:06:52.126Z,46.23
2018-06-15T11:09:24.548Z,45.10
2018-06-15T11:11:56.939Z,46.77
2018-06-15T11:14:29.406Z,46.53
2018-06-15T11:17:01.722Z,44.87
2018-06-15T11:19:34.043Z,42.43
2018-06-15T11:22:06.414Z,40.37
2018-06-15T11:24:38.632Z,36.53
2018-06-15T11:27:11.017Z,40.83
2018-06-15T11:30:28.415Z,40.10
2018-06-15T11:33:01.240Z,40.73
2018-06-15T11:35:33.922Z,47.93
2018-06-15T11:38:06.717Z,44.83
2018-06-15T11:40:40.389Z,43.87
2018-06-15T11:46:34.320Z,45.40
2018-06-15T11:49:09.492Z,51.13
2018-06-15T11:51:41.791Z,56.67
2018-06-15T11:54:13.775Z,74.67
2018-06-15T11:56:46.148Z,62.90
2018-06-15T11:59:18.552Z,59.70
2018-06-15T12:01:50.905Z,58.17
2018-06-15T12:04:23.168Z,44.07
2018-06-15T12:06:55.270Z,48.50
2018-06-15T12:09:27.391Z,42.33
2018-06-15T12:12:02.063Z,38.70
2018-06-15T12:14:34.394Z,38.00
2018-06-15T12:17:06.481Z,39.10
2018-06-15T12:19:40.044Z,38.47
2018-06-15T12:22:12.606Z,37.50
2018-06-15T12:31:36.674Z,40.23
2018-06-15T12:34:09.215Z,39.67
2018-06-15T12:36:41.905Z,41.20
2018-06-15T12:39:51.335Z,39.77
2018-06-15T12:42:24.258Z,38.77
2018-06-15T12:44:56.502Z,37.87
2018-06-15T12:47:28.652Z,43.17
2018-06-15T12:50:00.918Z,39.50
2018-06-15T12:52:33.199Z,34.87
2018-06-15T12:55:05.499Z,36.67
2018-06-15T12:57:37.977Z,39.43
2018-06-15T13:00:10.283Z,34.47
2018-06-15T13:02:42.533Z,31.17
2018-06-15T13:05:15.268Z,32.27
2018-06-15T13:07:47.628Z,30.77
2018-06-15T13:10:20.600Z,32.63
2018-06-15T13:12:53.016Z,27.40
2018-06-15T13:15:30.197Z,27.20
2018-06-15T13:18:32.134Z,24.07
2018-06-15T13:21:04.424Z,28.27
2018-06-15T13:23:36.818Z,23.43
2018-06-15T13:29:30.138Z,22.30
2018-06-15T13:32:02.337Z,23.07
2018-06-15T13:34:34.435Z,24.93
2018-06-15T13:37:06.694Z,21.70
2018-06-15T13:39:40.500Z,21.40
2018-06-15T13:42:14.207Z,28.33
2018-06-15T13:44:46.342Z,23.90
2018-06-15T13:47:18.650Z,24.60
2018-06-15T13:49:50.871Z,17.53
2018-06-15T13:52:22.990Z,21.33
2018-06-15T13:54:55.360Z,19.03
2018-06-15T13:57:27.548Z,26.43
2018-06-15T13:59:59.676Z,20.80
2018-06-15T14:02:31.857Z,21.67
2018-06-15T14:05:04.026Z,20.20
2018-06-15T14:07:36.424Z,19.73
2018-06-15T14:10:08.766Z,17.60
2018-06-15T14:15:18.660Z,17.80
2018-06-15T14:17:50.924Z,18.57
2018-06-15T14:20:23.105Z,15.63
2018-06-15T14:22:54.117Z,15.37
2018-06-15T14:25:26.381Z,13.60
2018-06-15T14:27:58.616Z,13.03
2018-06-15T14:30:30.735Z,11.13
2018-06-15T14:33:02.954Z,10.17
2018-06-15T14:35:35.219Z,9.83
2018-06-15T14:38:07.470Z,11.40
2018-06-15T14:40:39.572Z,9.47
2018-06-15T14:43:12.400Z,13.53
2018-06-15T14:45:44.676Z,13.10
2018-06-15T14:48:17.632Z,12.93
2018-06-15T14:50:50.242Z,13.87
2018-06-15T14:53:22.552Z,12.07
2018-06-15T14:55:54.838Z,13.27
2018-06-15T14:58:27.183Z,13.57
2018-06-15T15:01:00.149Z,17.53
2018-06-15T15:03:33.813Z,11.87
2018-06-15T15:06:11.234Z,12.27
2018-06-15T15:08:43.683Z,13.67
2018-06-15T15:11:15.956Z,11.23
2018-06-15T15:13:51.080Z,11.57
2018-06-15T15:16:23.411Z,11.83
2018-06-15T15:18:55.706Z,13.47
2018-06-15T15:21:28.674Z,17.80
2018-06-15T15:24:01.491Z,14.50
2018-06-15T15:26:35.370Z,15.17
2018-06-15T15:29:08.950Z,12.90
2018-06-15T15:31:43.528Z,18.40
2018-06-15T15:34:17.040Z,12.13
2018-06-15T15:36:50.394Z,11.87
2018-06-15T15:39:25.075Z,13.63
2018-06-15T15:42:00.585Z,11.80
2018-06-15T15:44:35.787Z,12.60
2018-06-15T15:47:08.047Z,13.30
2018-06-15T15:49:41.259Z,13.20
2018-06-15T15:52:16.030Z,13.80
2018-06-15T15:54:52.227Z,11.80
2018-06-15T15:57:33.706Z,12.37
2018-06-15T16:00:06.508Z,12.43
2018-06-15T16:05:49.799Z,12.43
2018-06-15T16:08:25.422Z,11.97
2018-06-15T16:11:00.627Z,11.40
2018-06-15T16:13:37.937Z,12.67
2018-06-15T16:16:23.550Z,12.60
2018-06-15T16:18:57.234Z,14.13
2018-06-15T16:21:31.000Z,10.53
2018-06-15T16:24:04.356Z,9.77
2018-06-15T16:26:49.919Z,11.43
2018-06-15T16:29:32.775Z,13.70
2018-06-15T16:32:12.381Z,11.63
2018-06-15T16:34:50.752Z,17.57
2018-06-15T16:37:24.548Z,13.37
2018-06-15T16:39:59.121Z,10.87
2018-06-15T16:42:32.898Z,12.17
2018-06-15T16:45:06.485Z,10.93
2018-06-15T16:47:41.545Z,12.60
2018-06-15T16:50:15.476Z,13.20
2018-06-15T16:52:52.587Z,12.37
2018-06-15T16:55:25.807Z,12.47
2018-06-15T16:58:01.827Z,11.10
2018-06-15T17:00:36.174Z,15.33
2018-06-15T17:03:11.707Z,14.27
2018-06-15T17:05:46.639Z,14.05
2018-06-15T17:08:20.912Z,15.00
2018-06-15T17:11:03.020Z,10.28
2018-06-15T17:13:37.038Z,12.50
2018-06-15T17:16:17.552Z,10.20
2018-06-15T17:18:55.213Z,8.68
2018-06-15T17:21:29.437Z,12.40
2018-06-15T17:24:09.442Z,13.93
2018-06-15T17:26:43.223Z,11.43
2018-06-15T17:29:15.119Z,11.53
2018-06-15T17:31:48.885Z,11.28
2018-06-15T17:34:25.768Z,10.28
2018-06-15T17:37:02.778Z,16.55
2018-06-15T17:39:36.639Z,11.45
2018-06-15T17:42:14.915Z,10.08
2018-06-15T17:44:51.617Z,11.18
2018-06-15T17:47:33.605Z,10.55
2018-06-15T17:50:09.824Z,14.35
2018-06-15T17:52:50.516Z,13.18
2018-06-15T17:55:24.815Z,10.28
2018-06-15T17:57:56.830Z,13.93
2018-06-15T18:00:31.255Z,11.68
2018-06-15T18:03:08.761Z,13.15
2018-06-15T18:05:42.055Z,23.70
2018-06-15T18:08:15.433Z,14.23
2018-06-15T18:10:49.367Z,17.25
2018-06-15T18:13:28.245Z,16.57
2018-06-15T18:16:04.851Z,12.73
2018-06-15T18:18:42.198Z,21.40
2018-06-15T18:21:15.495Z,12.58
2018-06-15T18:23:49.355Z,14.35
2018-06-15T18:26:23.258Z,20.27
2018-06-15T18:28:56.441Z,16.87
2018-06-15T18:31:31.677Z,19.48
2018-06-15T18:34:04.995Z,15.45
2018-06-15T18:42:41.640Z,13.05
2018-06-15T18:45:25.662Z,12.13
2018-06-15T18:48:05.051Z,9.53
2018-06-15T18:50:41.457Z,11.15
2018-06-15T18:53:18.823Z,15.83
2018-06-15T18:55:53.431Z,14.23
2018-06-15T18:58:29.660Z,15.08
2018-06-15T19:01:24.993Z,13.83
2018-06-15T19:04:00.162Z,13.62
2018-06-15T19:06:33.926Z,13.70
2018-06-15T19:09:38.770Z,14.50
2018-06-15T19:12:12.347Z,10.95
2018-06-15T19:20:18.824Z,18.23
2018-06-15T19:22:58.032Z,19.23
2018-06-15T19:25:40.781Z,19.87
2018-06-15T19:28:15.124Z,12.70
2018-06-15T19:30:54.773Z,14.03
2018-06-15T19:33:37.094Z,13.93
2018-06-15T19:38:49.584Z,18.52
2018-06-15T19:41:33.978Z,15.65
2018-06-15T19:44:11.991Z,18.00
2018-06-15T19:46:49.003Z,18.85
2018-06-15T19:49:24.582Z,20.67
2018-06-15T19:51:59.315Z,24.35
2018-06-15T19:54:34.291Z,17.62
2018-06-15T19:57:09.646Z,15.75
2018-06-15T19:59:45.437Z,15.45
2018-06-15T20:02:28.516Z,18.80
2018-06-15T20:05:05.331Z,20.32
2018-06-15T20:08:14.913Z,18.65
2018-06-15T20:16:49.481Z,16.77
2018-06-15T20:19:30.864Z,20.07
2018-06-15T20:22:11.481Z,17.82
2018-06-15T20:27:41.908Z,20.02
2018-06-15T20:36:51.399Z,18.92
2018-06-15T20:42:31.875Z,16.95
2018-06-15T20:45:16.813Z,15.80
2018-06-15T20:47:53.067Z,14.28
2018-06-15T20:53:32.922Z,17.25
2018-06-15T20:56:30.850Z,14.43
2018-06-15T21:05:03.682Z,13.00
2018-06-15T21:07:42.144Z,15.43
2018-06-15T21:10:24.382Z,13.72
2018-06-15T21:13:02.125Z,15.60
2018-06-15T21:15:35.798Z,15.63
2018-06-15T21:18:12.954Z,15.32
2018-06-15T21:27:08.804Z,22.83
2018-06-15T23:51:51.945Z,7.17
2018-06-15T23:54:29.663Z,6.37
2018-06-15T23:57:06.539Z,6.30
2018-06-15T23:59:38.943Z,6.63
